New Minden, Illinois
Current Conditions -  °F | °C
As of 11:35 AM on Friday 19 Dec 2014 (Local Time) from KSAR Reporting Station
Overcast Overcast  
Wind Chill: 34°   Ceiling: 3500
Heat Index: 34°   Visibility: 10mi
Dew Point: 28°   Wind: 3mph
Humidity: 81%   Direction: 60°ENE
Pressure: 30.3"   Gusts: NA
Location:  38.318°N, 89.3879°W
Report Text: KSAR 191735Z AUTO 06003KT 10SM OVC035 01/M02 A3030 RMK AO2 T00091020
Loading
Personal Weather Stations






























Interactive Weather Map New forecast layout! Learn more

10-Day Weather Forecast

Advertisements
Track Severe Weather on mobile